createdAt,value
2018-03-15T00:00:42.311Z,0.00
2018-03-15T00:01:42.497Z,0.00
2018-03-15T00:02:42.649Z,0.00
2018-03-15T00:03:42.829Z,0.00
2018-03-15T00:04:43.014Z,0.00
2018-03-15T00:05:43.179Z,0.00
2018-03-15T00:06:43.357Z,0.00
2018-03-15T00:07:43.534Z,0.00
2018-03-15T00:08:43.706Z,0.00
2018-03-15T00:09:43.876Z,0.00
2018-03-15T00:10:44.054Z,0.00
2018-03-15T00:11:44.228Z,0.00
2018-03-15T00:12:44.406Z,0.00
2018-03-15T00:13:44.577Z,0.00
2018-03-15T00:14:44.755Z,0.00
2018-03-15T00:15:44.934Z,0.00
2018-03-15T00:16:45.107Z,0.00
2018-03-15T00:17:45.287Z,0.00
2018-03-15T00:18:45.464Z,0.00
2018-03-15T00:19:45.639Z,0.00
2018-03-15T00:20:45.822Z,0.00
2018-03-15T00:21:45.996Z,0.00
2018-03-15T00:22:46.165Z,0.00
2018-03-15T00:23:46.339Z,0.00
2018-03-15T00:24:46.513Z,0.00
2018-03-15T00:25:46.691Z,0.00
2018-03-15T00:26:46.866Z,0.00
2018-03-15T00:27:47.039Z,0.00
2018-03-15T00:28:47.214Z,0.00
2018-03-15T00:29:47.394Z,0.00
2018-03-15T00:30:47.566Z,0.00
2018-03-15T00:31:47.752Z,0.00
2018-03-15T00:32:47.923Z,0.00
2018-03-15T00:33:48.092Z,0.00
2018-03-15T00:34:48.266Z,0.00
2018-03-15T00:35:48.439Z,0.00
2018-03-15T00:36:48.634Z,0.00
2018-03-15T00:37:48.807Z,0.00
2018-03-15T00:38:48.978Z,0.00
2018-03-15T00:39:49.160Z,0.00
2018-03-15T00:40:49.336Z,0.00
2018-03-15T00:41:49.518Z,0.00
2018-03-15T00:42:49.691Z,0.00
2018-03-15T00:43:49.865Z,0.00
2018-03-15T00:44:50.039Z,0.00
2018-03-15T00:45:50.213Z,0.00
2018-03-15T00:47:50.554Z,0.00
2018-03-15T00:48:50.729Z,0.00
2018-03-15T00:49:50.906Z,0.00
2018-03-15T00:50:51.081Z,0.00
2018-03-15T00:51:51.260Z,0.00
2018-03-15T00:52:51.459Z,0.00
2018-03-15T00:53:51.609Z,0.00
2018-03-15T00:54:51.780Z,0.00
2018-03-15T00:55:51.957Z,0.00
2018-03-15T00:56:52.127Z,0.00
2018-03-15T00:57:59.940Z,0.00
2018-03-15T00:58:52.475Z,0.00
2018-03-15T00:59:52.652Z,0.00
2018-03-15T01:00:52.820Z,0.00
2018-03-15T01:01:52.988Z,0.00
2018-03-15T01:02:53.160Z,0.00
2018-03-15T01:03:53.334Z,0.00
2018-03-15T01:04:53.533Z,0.00
2018-03-15T01:05:53.662Z,0.00
2018-03-15T01:06:53.842Z,0.00
2018-03-15T01:07:54.005Z,0.00
2018-03-15T01:08:54.191Z,0.00
2018-03-15T01:09:54.348Z,0.00
2018-03-15T01:10:54.514Z,0.00
2018-03-15T01:11:54.689Z,0.00
2018-03-15T01:12:54.863Z,0.00
2018-03-15T01:13:55.028Z,0.00
2018-03-15T01:14:55.203Z,0.00
2018-03-15T01:15:55.387Z,0.00
2018-03-15T01:16:55.556Z,0.00
2018-03-15T01:17:55.724Z,0.00
2018-03-15T01:18:55.897Z,0.00
2018-03-15T01:19:56.071Z,0.00
2018-03-15T01:20:56.246Z,0.00
2018-03-15T01:21:56.419Z,0.00
2018-03-15T01:22:56.600Z,0.00
2018-03-15T01:23:56.769Z,0.00
2018-03-15T01:24:56.933Z,0.00
2018-03-15T01:25:57.102Z,0.00
2018-03-15T01:26:57.273Z,0.00
2018-03-15T01:27:57.449Z,0.00
2018-03-15T01:28:57.674Z,0.00
2018-03-15T01:29:57.796Z,0.00
2018-03-15T01:30:57.971Z,0.00
2018-03-15T01:31:58.144Z,0.00
2018-03-15T01:32:58.323Z,0.00
2018-03-15T01:33:58.479Z,0.00
2018-03-15T01:34:58.654Z,0.00
2018-03-15T01:35:58.827Z,0.00
2018-03-15T01:36:59.007Z,0.00
2018-03-15T01:37:59.228Z,0.00
2018-03-15T01:38:59.345Z,0.00
2018-03-15T01:39:59.516Z,0.00
2018-03-15T01:40:59.692Z,0.00
2018-03-15T01:41:59.866Z,0.00
2018-03-15T01:43:00.042Z,0.00
2018-03-15T01:44:00.222Z,0.00
2018-03-15T01:45:00.391Z,0.00
2018-03-15T01:46:00.566Z,0.00
2018-03-15T01:47:00.738Z,0.00
2018-03-15T01:48:00.926Z,0.00
2018-03-15T01:49:01.103Z,0.00
2018-03-15T01:50:01.276Z,0.00
2018-03-15T01:51:01.451Z,0.00
2018-03-15T01:52:01.620Z,0.00
2018-03-15T01:53:01.816Z,0.00
2018-03-15T01:54:01.970Z,0.00
2018-03-15T01:55:02.148Z,0.00
2018-03-15T01:56:02.314Z,0.00
2018-03-15T01:57:02.495Z,0.00
2018-03-15T01:58:02.667Z,0.00
2018-03-15T01:59:02.834Z,0.00
2018-03-15T02:00:03.008Z,0.00
2018-03-15T02:01:03.181Z,0.00
2018-03-15T02:02:03.356Z,0.00
2018-03-15T02:03:03.527Z,0.00
2018-03-15T02:04:03.700Z,0.00
2018-03-15T02:05:03.874Z,0.00
2018-03-15T02:06:04.051Z,0.00
2018-03-15T02:07:04.231Z,0.00
2018-03-15T02:08:04.399Z,0.00
2018-03-15T02:09:04.564Z,0.00
2018-03-15T02:10:04.751Z,0.00
2018-03-15T02:11:04.921Z,0.00
2018-03-15T02:12:05.087Z,0.00
2018-03-15T02:13:05.269Z,0.00
2018-03-15T02:14:05.442Z,0.00
2018-03-15T02:15:05.623Z,0.00
2018-03-15T02:16:05.795Z,0.00
2018-03-15T02:17:05.963Z,0.00
2018-03-15T02:18:06.152Z,0.00
2018-03-15T02:19:06.319Z,0.00
2018-03-15T02:20:06.485Z,0.00
2018-03-15T02:21:06.652Z,0.00
2018-03-15T02:22:06.832Z,0.00
2018-03-15T02:23:07.007Z,0.00
2018-03-15T02:24:07.180Z,0.00
2018-03-15T02:25:07.355Z,0.00
2018-03-15T02:26:07.542Z,0.00
2018-03-15T02:27:07.698Z,0.00
2018-03-15T02:28:07.869Z,0.00
2018-03-15T02:29:08.045Z,0.00
2018-03-15T02:30:08.224Z,0.00
2018-03-15T02:31:08.389Z,0.00
2018-03-15T02:32:08.566Z,0.00
2018-03-15T02:33:08.993Z,0.00
2018-03-15T02:34:08.912Z,0.00
2018-03-15T02:35:09.086Z,0.00
2018-03-15T02:36:09.262Z,0.00
2018-03-15T02:37:09.439Z,0.00
2018-03-15T02:38:09.612Z,0.00
2018-03-15T02:39:09.785Z,0.00
2018-03-15T02:40:09.965Z,0.00
2018-03-15T02:41:10.136Z,0.00
2018-03-15T02:42:10.322Z,0.00
2018-03-15T02:43:10.504Z,0.00
2018-03-15T02:44:10.655Z,0.00
2018-03-15T02:45:10.834Z,0.00
2018-03-15T02:46:11.000Z,0.00
2018-03-15T02:47:11.175Z,0.00
2018-03-15T02:48:11.346Z,0.00
2018-03-15T02:49:11.521Z,0.00
2018-03-15T02:50:11.696Z,0.00
2018-03-15T02:51:11.873Z,0.00
2018-03-15T02:52:12.041Z,0.00
2018-03-15T02:53:12.220Z,0.00
2018-03-15T02:54:12.389Z,0.00
2018-03-15T02:55:12.561Z,0.00
2018-03-15T02:57:12.896Z,0.00
2018-03-15T02:58:13.072Z,0.00
2018-03-15T02:59:13.244Z,0.00
2018-03-15T03:00:13.421Z,0.00
2018-03-15T03:01:13.591Z,0.00
2018-03-15T03:02:13.767Z,0.00
2018-03-15T03:03:13.943Z,0.00
2018-03-15T03:04:14.112Z,0.00
2018-03-15T03:05:14.286Z,0.00
2018-03-15T03:06:14.533Z,0.00
2018-03-15T03:07:14.653Z,0.00
2018-03-15T03:08:14.821Z,0.00
2018-03-15T03:09:15.004Z,0.00
2018-03-15T03:10:15.167Z,0.00
2018-03-15T03:11:15.339Z,0.00
2018-03-15T03:12:15.509Z,0.00
2018-03-15T03:13:15.682Z,0.00
2018-03-15T03:14:15.857Z,0.00
2018-03-15T03:15:16.032Z,0.00
2018-03-15T03:16:16.210Z,0.00
2018-03-15T03:17:16.382Z,0.00
2018-03-15T03:18:16.545Z,0.00
2018-03-15T03:19:16.725Z,0.00
2018-03-15T03:20:16.892Z,0.00
2018-03-15T03:21:17.069Z,0.00
2018-03-15T03:22:17.241Z,0.00
2018-03-15T03:23:17.450Z,0.00
2018-03-15T03:24:17.629Z,0.00
2018-03-15T03:25:17.798Z,0.00
2018-03-15T03:26:17.962Z,0.00
2018-03-15T03:27:18.138Z,0.00
2018-03-15T03:28:18.309Z,0.00
2018-03-15T03:29:18.486Z,0.00
2018-03-15T03:30:18.652Z,0.00
2018-03-15T03:31:18.824Z,0.00
2018-03-15T03:32:19.000Z,0.00
2018-03-15T03:33:19.168Z,0.00
2018-03-15T03:34:19.346Z,0.00
2018-03-15T03:35:19.518Z,0.00
2018-03-15T03:36:19.699Z,0.00
2018-03-15T03:37:19.874Z,0.00
2018-03-15T03:38:20.045Z,0.00
2018-03-15T03:39:20.216Z,0.00
2018-03-15T03:40:20.396Z,0.00
2018-03-15T03:41:20.561Z,0.00
2018-03-15T03:42:20.741Z,0.00
2018-03-15T03:43:20.912Z,0.00
2018-03-15T03:44:21.087Z,0.00
2018-03-15T03:45:21.264Z,0.00
2018-03-15T03:46:21.433Z,0.00
2018-03-15T03:47:21.609Z,0.00
2018-03-15T03:48:21.779Z,0.00
2018-03-15T03:49:21.958Z,0.00
2018-03-15T03:50:22.128Z,0.00
2018-03-15T03:51:22.296Z,0.00
2018-03-15T03:52:22.463Z,0.00
2018-03-15T03:53:22.643Z,0.00
2018-03-15T03:54:22.811Z,0.00
2018-03-15T03:55:22.994Z,0.00
2018-03-15T03:56:23.160Z,0.00
2018-03-15T03:57:23.323Z,0.00
2018-03-15T03:58:23.488Z,0.00
2018-03-15T03:59:23.663Z,0.00
2018-03-15T04:00:23.839Z,0.00
2018-03-15T04:01:24.009Z,0.00
2018-03-15T04:02:24.182Z,0.00
2018-03-15T04:03:24.405Z,0.00
2018-03-15T04:04:24.530Z,0.00
2018-03-15T04:05:24.707Z,0.00
2018-03-15T04:06:24.877Z,0.00
2018-03-15T04:07:25.093Z,0.00
2018-03-15T04:08:25.269Z,0.00
2018-03-15T04:09:25.483Z,0.00
2018-03-15T04:10:25.612Z,0.00
2018-03-15T04:11:25.782Z,0.00
2018-03-15T04:12:25.955Z,0.00
2018-03-15T04:13:26.128Z,0.00
2018-03-15T04:14:26.303Z,0.00
2018-03-15T04:15:26.478Z,0.00
2018-03-15T04:16:26.645Z,0.00
2018-03-15T04:17:26.838Z,0.00
2018-03-15T04:18:26.994Z,0.00
2018-03-15T04:19:27.164Z,0.00
2018-03-15T04:20:27.336Z,0.00
2018-03-15T04:21:27.511Z,0.00
2018-03-15T04:22:27.681Z,0.00
2018-03-15T04:23:27.858Z,0.00
2018-03-15T04:24:28.035Z,0.00
2018-03-15T04:25:28.210Z,0.00
2018-03-15T04:26:28.421Z,0.00
2018-03-15T04:27:28.554Z,0.00
2018-03-15T04:28:28.724Z,0.00
2018-03-15T04:29:29.137Z,0.00
2018-03-15T04:30:29.076Z,0.00
2018-03-15T04:31:29.238Z,0.00
2018-03-15T04:32:29.410Z,0.00
2018-03-15T04:33:29.578Z,0.00
2018-03-15T04:34:29.753Z,0.00
2018-03-15T04:35:29.928Z,0.00
2018-03-15T04:36:30.097Z,0.00
2018-03-15T04:37:30.267Z,0.00
2018-03-15T04:38:30.440Z,0.00
2018-03-15T04:39:30.613Z,0.00
2018-03-15T04:40:30.788Z,0.00
2018-03-15T04:41:30.959Z,0.00
2018-03-15T04:42:31.137Z,0.00
2018-03-15T04:43:31.306Z,0.00
2018-03-15T04:44:31.482Z,0.00
2018-03-15T04:45:31.651Z,0.00
2018-03-15T04:46:31.834Z,0.00
2018-03-15T04:47:32.001Z,0.00
2018-03-15T04:48:32.173Z,0.00
2018-03-15T04:49:32.341Z,0.00
2018-03-15T04:50:32.535Z,0.00
2018-03-15T04:51:32.701Z,0.00
2018-03-15T04:52:32.856Z,0.00
2018-03-15T04:53:33.024Z,0.00
2018-03-15T04:54:33.195Z,0.00
2018-03-15T04:55:33.370Z,0.00
2018-03-15T04:56:33.549Z,0.00
2018-03-15T04:57:33.748Z,0.00
2018-03-15T04:58:33.942Z,0.00
2018-03-15T04:59:34.068Z,4.00
2018-03-15T05:00:34.243Z,0.00
2018-03-15T05:01:34.416Z,0.00
2018-03-15T05:02:34.591Z,4.00
2018-03-15T05:03:34.760Z,0.00
2018-03-15T05:04:34.932Z,4.00
2018-03-15T05:05:35.098Z,4.00
2018-03-15T05:06:35.278Z,4.00
2018-03-15T05:07:35.451Z,4.00
2018-03-15T05:08:35.625Z,8.00
2018-03-15T05:09:35.796Z,8.00
2018-03-15T05:10:35.980Z,8.00
2018-03-15T05:11:36.146Z,8.00
2018-03-15T05:12:36.339Z,12.00
2018-03-15T05:13:36.490Z,12.00
2018-03-15T05:14:36.666Z,16.00
2018-03-15T05:15:36.840Z,20.00
2018-03-15T05:16:37.009Z,24.00
2018-03-15T05:17:37.192Z,28.00
2018-03-15T05:18:37.355Z,32.00
2018-03-15T05:19:37.536Z,36.00
2018-03-15T05:20:37.702Z,44.00
2018-03-15T05:21:37.891Z,48.00
2018-03-15T05:22:38.042Z,56.00
2018-03-15T05:23:38.215Z,68.00
2018-03-15T05:24:38.394Z,76.00
2018-03-15T05:25:38.571Z,84.00
2018-03-15T05:26:38.736Z,96.00
2018-03-15T05:27:38.912Z,108.00
2018-03-15T05:28:39.097Z,120.00
2018-03-15T05:29:39.257Z,136.00
2018-03-15T05:30:39.427Z,152.00
2018-03-15T05:31:39.602Z,168.00
2018-03-15T05:32:39.775Z,184.00
2018-03-15T05:33:39.950Z,208.00
2018-03-15T05:34:40.123Z,228.00
2018-03-15T05:35:40.296Z,248.00
2018-03-15T05:36:40.477Z,272.00
2018-03-15T05:37:40.639Z,292.00
2018-03-15T05:38:40.808Z,316.00
2018-03-15T05:39:40.973Z,348.00
2018-03-15T05:40:41.146Z,376.00
2018-03-15T05:41:41.320Z,404.00
2018-03-15T05:42:41.493Z,436.00
2018-03-15T05:43:41.662Z,472.00
2018-03-15T05:44:41.834Z,504.00
2018-03-15T05:45:42.020Z,548.00
2018-03-15T05:46:42.183Z,588.00
2018-03-15T05:47:42.357Z,628.00
2018-03-15T05:48:42.530Z,672.00
2018-03-15T05:49:42.700Z,720.00
2018-03-15T05:50:42.877Z,764.00
2018-03-15T05:51:43.046Z,812.00
2018-03-15T05:52:43.222Z,868.00
2018-03-15T05:53:43.399Z,920.00
2018-03-15T05:54:43.569Z,972.00
2018-03-15T05:55:43.747Z,1028.00
2018-03-15T05:56:43.921Z,1080.00
2018-03-15T05:57:44.089Z,1140.00
2018-03-15T05:58:44.273Z,1200.00
2018-03-15T05:59:44.443Z,1260.00
2018-03-15T06:00:44.611Z,1328.00
2018-03-15T06:01:44.771Z,1388.00
2018-03-15T06:02:44.941Z,1452.00
2018-03-15T06:03:45.117Z,1512.00
2018-03-15T06:04:45.298Z,1584.00
2018-03-15T06:05:45.469Z,1648.00
2018-03-15T06:06:45.642Z,1712.00
2018-03-15T06:07:45.813Z,1788.00
2018-03-15T06:08:45.995Z,1872.00
2018-03-15T06:09:46.165Z,1944.00
2018-03-15T06:10:46.339Z,2024.00
2018-03-15T06:11:46.527Z,2096.00
2018-03-15T06:12:46.676Z,2192.00
2018-03-15T06:13:46.848Z,2272.00
2018-03-15T06:14:47.020Z,2360.00
2018-03-15T06:15:47.192Z,2436.00
2018-03-15T06:16:47.671Z,2508.00
2018-03-15T06:17:47.541Z,2588.00
2018-03-15T06:18:47.721Z,2676.00
2018-03-15T06:19:47.893Z,2796.00
2018-03-15T06:20:48.057Z,2860.00
2018-03-15T06:21:48.241Z,3220.00
2018-03-15T06:22:48.411Z,6392.00
2018-03-15T06:23:48.587Z,9560.00
2018-03-15T06:24:48.763Z,10144.00
2018-03-15T06:25:48.933Z,10816.00
2018-03-15T06:26:49.116Z,12096.00
2018-03-15T06:27:49.288Z,13440.00
2018-03-15T06:28:49.484Z,14016.00
2018-03-15T06:29:49.625Z,14240.00
2018-03-15T06:30:49.801Z,14656.00
2018-03-15T06:31:49.973Z,14560.00
2018-03-15T06:32:50.149Z,14176.00
2018-03-15T06:33:50.321Z,14208.00
2018-03-15T06:34:50.504Z,14880.00
2018-03-15T06:35:50.674Z,15488.00
2018-03-15T06:36:50.850Z,15680.00
2018-03-15T06:37:51.026Z,15360.00
2018-03-15T06:38:51.205Z,15136.00
2018-03-15T06:39:51.355Z,15360.00
2018-03-15T06:40:51.530Z,16096.00
2018-03-15T06:41:51.706Z,16640.00
2018-03-15T06:42:51.883Z,16320.00
2018-03-15T06:43:52.060Z,15840.00
2018-03-15T06:44:52.239Z,15808.00
2018-03-15T06:45:52.419Z,16160.00
2018-03-15T06:46:52.598Z,16224.00
2018-03-15T06:47:52.767Z,16128.00
2018-03-15T06:48:52.948Z,16448.00
2018-03-15T06:49:53.137Z,16960.00
2018-03-15T06:50:53.304Z,16928.00
2018-03-15T06:51:53.497Z,16992.00
2018-03-15T06:52:53.663Z,17216.00
2018-03-15T06:53:53.852Z,17024.00
2018-03-15T06:54:54.124Z,16480.00
2018-03-15T06:55:54.187Z,16096.00
2018-03-15T06:56:54.354Z,15776.00
2018-03-15T06:57:54.527Z,15872.00
2018-03-15T06:58:54.976Z,15936.00
2018-03-15T06:59:54.883Z,15232.00
2018-03-15T07:00:55.061Z,16096.00
2018-03-15T07:01:55.238Z,16384.00
2018-03-15T07:02:55.419Z,15744.00
2018-03-15T07:03:55.595Z,15520.00
2018-03-15T07:04:55.788Z,15328.00
2018-03-15T07:05:55.956Z,15232.00
2018-03-15T07:06:56.128Z,15328.00
2018-03-15T07:07:56.311Z,15360.00
2018-03-15T07:08:56.495Z,15168.00
2018-03-15T07:09:56.668Z,15104.00
2018-03-15T07:10:56.857Z,14976.00
2018-03-15T07:11:57.034Z,14880.00
2018-03-15T07:12:57.214Z,14528.00
2018-03-15T07:13:57.387Z,14720.00
2018-03-15T07:14:57.566Z,14720.00
2018-03-15T07:15:57.744Z,14464.00
2018-03-15T07:16:57.939Z,14208.00
2018-03-15T07:17:58.113Z,13824.00
2018-03-15T07:18:58.291Z,13920.00
2018-03-15T07:19:58.477Z,13568.00
2018-03-15T07:20:58.649Z,13240.00
2018-03-15T07:21:58.830Z,13080.00
2018-03-15T07:22:59.013Z,13008.00
2018-03-15T07:23:59.196Z,12844.00
2018-03-15T07:24:59.374Z,12440.00
2018-03-15T07:25:59.552Z,12260.00
2018-03-15T07:26:59.729Z,12128.00
2018-03-15T07:27:59.908Z,11844.00
2018-03-15T07:29:00.086Z,11872.00
2018-03-15T07:30:00.276Z,11740.00
2018-03-15T07:31:00.448Z,11452.00
2018-03-15T07:32:00.634Z,11152.00
2018-03-15T07:33:00.830Z,10848.00
2018-03-15T07:34:00.990Z,10472.00
2018-03-15T07:35:01.161Z,10084.00
2018-03-15T07:36:01.355Z,10128.00
2018-03-15T07:37:01.525Z,10000.00
2018-03-15T07:38:01.716Z,9752.00
2018-03-15T07:39:01.888Z,9680.00
2018-03-15T07:40:02.073Z,9700.00
2018-03-15T07:41:02.254Z,9648.00
2018-03-15T07:42:02.434Z,9564.00
2018-03-15T07:43:02.612Z,9532.00
2018-03-15T07:44:02.793Z,8944.00
2018-03-15T07:45:02.970Z,8568.00
2018-03-15T07:46:03.153Z,8352.00
2018-03-15T07:47:03.339Z,8348.00
2018-03-15T07:48:03.513Z,8376.00
2018-03-15T07:49:03.695Z,8392.00
2018-03-15T07:50:03.883Z,8400.00
2018-03-15T07:51:04.059Z,8380.00
2018-03-15T07:52:04.250Z,8340.00
2018-03-15T07:53:04.427Z,8388.00
2018-03-15T07:54:04.608Z,8372.00
2018-03-15T07:55:04.788Z,8380.00
2018-03-15T07:56:04.984Z,8348.00
2018-03-15T07:57:05.144Z,8320.00
2018-03-15T07:58:05.321Z,8320.00
2018-03-15T07:59:05.517Z,8268.00
2018-03-15T08:00:05.693Z,8244.00
2018-03-15T08:01:05.867Z,8164.00
2018-03-15T08:02:06.046Z,8200.00
2018-03-15T08:03:06.230Z,8244.00
2018-03-15T08:04:06.414Z,8220.00
2018-03-15T08:05:06.617Z,8216.00
2018-03-15T08:06:06.792Z,8224.00
2018-03-15T08:07:06.970Z,8216.00
2018-03-15T08:08:07.148Z,8240.00
2018-03-15T08:09:07.327Z,8256.00
2018-03-15T08:10:07.510Z,8236.00
2018-03-15T08:11:07.700Z,8320.00
2018-03-15T08:12:07.869Z,8348.00
2018-03-15T08:13:08.049Z,8336.00
2018-03-15T08:14:08.228Z,8356.00
2018-03-15T08:15:08.413Z,8396.00
2018-03-15T08:16:08.592Z,8416.00
2018-03-15T08:17:08.777Z,8380.00
2018-03-15T08:18:08.948Z,8436.00
2018-03-15T08:19:09.130Z,8460.00
2018-03-15T08:20:09.319Z,8452.00
2018-03-15T08:21:09.494Z,8488.00
2018-03-15T08:22:09.673Z,8492.00
2018-03-15T08:23:09.852Z,8404.00
2018-03-15T08:24:10.031Z,8424.00
2018-03-15T08:25:10.209Z,8472.00
2018-03-15T08:26:10.389Z,8436.00
2018-03-15T08:27:10.576Z,8444.00
2018-03-15T08:28:10.751Z,8456.00
2018-03-15T08:29:10.941Z,8472.00
2018-03-15T08:30:11.108Z,8460.00
2018-03-15T08:31:11.295Z,8452.00
2018-03-15T08:32:11.471Z,8440.00
2018-03-15T08:33:11.649Z,8468.00
2018-03-15T08:34:11.828Z,8536.00
2018-03-15T08:35:12.007Z,8500.00
2018-03-15T08:36:12.194Z,8500.00
2018-03-15T08:37:12.370Z,8556.00
2018-03-15T08:38:12.547Z,8660.00
2018-03-15T08:39:12.736Z,8644.00
2018-03-15T08:40:12.906Z,8636.00
2018-03-15T08:41:13.085Z,8624.00
2018-03-15T08:42:13.268Z,8656.00
2018-03-15T08:43:13.440Z,8672.00
2018-03-15T08:44:13.626Z,8772.00
2018-03-15T08:45:13.814Z,8756.00
2018-03-15T08:46:14.018Z,8700.00
2018-03-15T08:47:14.171Z,8704.00
2018-03-15T08:48:14.341Z,8736.00
2018-03-15T08:49:14.524Z,8768.00
2018-03-15T08:50:14.702Z,8800.00
2018-03-15T08:51:14.879Z,8820.00
2018-03-15T08:52:15.061Z,8784.00
2018-03-15T08:53:15.240Z,8776.00
2018-03-15T08:54:15.423Z,8820.00
2018-03-15T08:55:15.603Z,8820.00
2018-03-15T08:56:15.806Z,8800.00
2018-03-15T08:57:15.968Z,8724.00
2018-03-15T08:58:16.147Z,8768.00
2018-03-15T08:59:16.339Z,8760.00
2018-03-15T09:00:16.511Z,8772.00
2018-03-15T09:01:16.691Z,8752.00
2018-03-15T09:02:16.864Z,8812.00
2018-03-15T09:03:17.051Z,8792.00
2018-03-15T09:04:17.231Z,8780.00
2018-03-15T09:05:17.404Z,8832.00
2018-03-15T09:06:17.726Z,8880.00
2018-03-15T09:07:17.770Z,8868.00
2018-03-15T09:08:17.946Z,8836.00
2018-03-15T09:09:18.173Z,8772.00
2018-03-15T09:10:18.310Z,8828.00
2018-03-15T09:11:18.494Z,8852.00
2018-03-15T09:12:18.677Z,8860.00
2018-03-15T09:13:18.858Z,8940.00
2018-03-15T09:14:19.041Z,8912.00
2018-03-15T09:15:19.218Z,8940.00
2018-03-15T09:16:19.399Z,8916.00
2018-03-15T09:17:19.582Z,8876.00
2018-03-15T09:18:19.766Z,8860.00
2018-03-15T09:19:19.948Z,8888.00
2018-03-15T09:20:20.123Z,8924.00
2018-03-15T09:21:20.305Z,8884.00
2018-03-15T09:22:20.492Z,8824.00
2018-03-15T09:23:20.670Z,8952.00
2018-03-15T09:24:20.850Z,8868.00
2018-03-15T09:25:21.027Z,8888.00
2018-03-15T09:26:21.221Z,8956.00
2018-03-15T09:27:21.396Z,8956.00
2018-03-15T09:28:21.573Z,8904.00
2018-03-15T09:29:21.766Z,8892.00
2018-03-15T09:30:21.954Z,8908.00
2018-03-15T09:31:22.130Z,8960.00
2018-03-15T09:32:22.308Z,8792.00
2018-03-15T09:33:22.492Z,8836.00
2018-03-15T09:34:22.743Z,8860.00
2018-03-15T09:35:22.860Z,8832.00
2018-03-15T09:36:23.044Z,8796.00
2018-03-15T09:37:23.228Z,8852.00
2018-03-15T09:38:23.407Z,8812.00
2018-03-15T09:39:23.590Z,8708.00
2018-03-15T09:40:23.874Z,8720.00
2018-03-15T09:41:23.919Z,8716.00
2018-03-15T09:42:24.176Z,8704.00
2018-03-15T09:43:24.390Z,8820.00
2018-03-15T09:44:24.445Z,8812.00
2018-03-15T09:45:24.643Z,8804.00
2018-03-15T09:46:24.822Z,8816.00
2018-03-15T09:47:25.001Z,8756.00
2018-03-15T09:48:25.185Z,8716.00
2018-03-15T09:49:25.376Z,8788.00
2018-03-15T09:50:25.547Z,8804.00
2018-03-15T09:51:25.746Z,8796.00
2018-03-15T09:52:25.919Z,8652.00
2018-03-15T09:53:26.091Z,8848.00
2018-03-15T09:54:26.274Z,8556.00
2018-03-15T09:56:26.631Z,8788.00
2018-03-15T09:57:26.819Z,8576.00
2018-03-15T09:58:26.997Z,8596.00
2018-03-15T09:59:27.184Z,8472.00
2018-03-15T10:00:27.367Z,8424.00
2018-03-15T10:01:27.549Z,8208.00
2018-03-15T10:02:27.732Z,8276.00
2018-03-15T10:03:27.911Z,8380.00
2018-03-15T10:04:28.095Z,8344.00
2018-03-15T10:05:28.279Z,8212.00
2018-03-15T10:06:28.468Z,7984.00
2018-03-15T10:07:28.655Z,7976.00
2018-03-15T10:08:28.828Z,7908.00
2018-03-15T10:09:29.020Z,7764.00
2018-03-15T10:10:29.196Z,7660.00
2018-03-15T10:11:29.385Z,7564.00
2018-03-15T10:12:29.570Z,7636.00
2018-03-15T10:13:29.752Z,7740.00
2018-03-15T10:14:29.938Z,7708.00
2018-03-15T10:15:30.125Z,7636.00
2018-03-15T10:16:30.295Z,7652.00
2018-03-15T10:17:30.484Z,7740.00
2018-03-15T10:18:30.684Z,7540.00
2018-03-15T10:19:30.870Z,7424.00
2018-03-15T10:20:31.059Z,7396.00
2018-03-15T10:21:31.233Z,7512.00
2018-03-15T10:22:31.415Z,7960.00
2018-03-15T10:23:31.601Z,7324.00
2018-03-15T10:24:31.786Z,7256.00
2018-03-15T10:25:31.993Z,7256.00
2018-03-15T10:26:32.160Z,7248.00
2018-03-15T10:27:32.389Z,7220.00
2018-03-15T10:28:32.532Z,7204.00
2018-03-15T10:29:32.703Z,7172.00
2018-03-15T10:30:32.901Z,7252.00
2018-03-15T10:31:33.078Z,7232.00
2018-03-15T10:32:33.259Z,7344.00
2018-03-15T10:33:33.438Z,7332.00
2018-03-15T10:34:33.618Z,7364.00
2018-03-15T10:35:33.798Z,7388.00
2018-03-15T10:36:33.982Z,7540.00
2018-03-15T10:37:34.163Z,7412.00
2018-03-15T10:38:34.362Z,7316.00
2018-03-15T10:39:34.528Z,7300.00
2018-03-15T10:40:34.712Z,7328.00
2018-03-15T10:41:34.900Z,7324.00
2018-03-15T10:42:35.091Z,7500.00
2018-03-15T10:43:35.276Z,7556.00
2018-03-15T10:44:35.472Z,7564.00
2018-03-15T10:45:35.646Z,7732.00
2018-03-15T10:46:35.809Z,7736.00
2018-03-15T10:47:35.992Z,7792.00
2018-03-15T10:48:36.180Z,7784.00
2018-03-15T10:49:36.363Z,7688.00
2018-03-15T10:50:36.564Z,7508.00
2018-03-15T10:51:36.728Z,7348.00
2018-03-15T10:52:36.932Z,7416.00
2018-03-15T10:53:37.091Z,7472.00
2018-03-15T10:54:37.275Z,7592.00
2018-03-15T10:55:37.461Z,7252.00
2018-03-15T10:56:37.643Z,6964.00
2018-03-15T10:57:37.829Z,6900.00
2018-03-15T10:58:38.015Z,6992.00
2018-03-15T10:59:38.214Z,6776.00
2018-03-15T11:00:38.372Z,6244.00
2018-03-15T11:01:38.568Z,6360.00
2018-03-15T11:02:38.752Z,6364.00
2018-03-15T11:03:38.953Z,6384.00
2018-03-15T11:04:39.133Z,6448.00
2018-03-15T11:05:39.319Z,6352.00
2018-03-15T11:06:39.501Z,6288.00
2018-03-15T11:07:39.685Z,6424.00
2018-03-15T11:08:39.873Z,6440.00
2018-03-15T11:09:40.053Z,6100.00
2018-03-15T11:10:40.244Z,5960.00
2018-03-15T11:11:40.420Z,5908.00
2018-03-15T11:12:40.603Z,6064.00
2018-03-15T11:13:40.798Z,6040.00
2018-03-15T11:14:40.983Z,6208.00
2018-03-15T11:15:41.168Z,6288.00
2018-03-15T11:16:41.344Z,6020.00
2018-03-15T11:17:41.528Z,5900.00
2018-03-15T11:18:41.711Z,5664.00
2018-03-15T11:19:41.903Z,5392.00
2018-03-15T11:20:42.081Z,5740.00
2018-03-15T11:21:42.268Z,5716.00
2018-03-15T11:22:42.449Z,5636.00
2018-03-15T11:23:42.724Z,5600.00
2018-03-15T11:24:42.841Z,5696.00
2018-03-15T11:25:42.994Z,6012.00
2018-03-15T11:26:43.234Z,6192.00
2018-03-15T11:27:43.364Z,6064.00
2018-03-15T11:28:43.550Z,6072.00
2018-03-15T11:29:43.732Z,5916.00
2018-03-15T11:30:43.916Z,5416.00
2018-03-15T11:31:44.101Z,5260.00
2018-03-15T11:32:44.283Z,5328.00
2018-03-15T11:33:44.471Z,5296.00
2018-03-15T11:34:44.638Z,5112.00
2018-03-15T11:35:44.821Z,5380.00
2018-03-15T11:36:45.002Z,5144.00
2018-03-15T11:37:45.183Z,5444.00
2018-03-15T11:38:45.368Z,5648.00
2018-03-15T11:39:45.551Z,6008.00
2018-03-15T11:40:45.740Z,6516.00
2018-03-15T11:41:45.926Z,6956.00
2018-03-15T11:42:46.111Z,6988.00
2018-03-15T11:43:46.303Z,7136.00
2018-03-15T11:44:46.466Z,7068.00
2018-03-15T11:45:46.979Z,7008.00
2018-03-15T11:46:46.830Z,6832.00
2018-03-15T11:47:47.027Z,6540.00
2018-03-15T11:48:47.189Z,6400.00
2018-03-15T11:49:47.395Z,6348.00
2018-03-15T11:50:47.544Z,6668.00
2018-03-15T11:51:47.731Z,6780.00
2018-03-15T11:52:47.910Z,7012.00
2018-03-15T11:53:48.096Z,6888.00
2018-03-15T11:54:48.270Z,6716.00
2018-03-15T11:55:48.458Z,6612.00
2018-03-15T11:56:48.631Z,6628.00
2018-03-15T11:57:48.819Z,6540.00
2018-03-15T11:58:48.997Z,6388.00
2018-03-15T11:59:49.182Z,6780.00
2018-03-15T12:00:49.366Z,7720.00
2018-03-15T12:01:49.590Z,8628.00
2018-03-15T12:02:49.706Z,14464.00
2018-03-15T12:03:49.880Z,26176.00
2018-03-15T12:04:50.065Z,22688.00
2018-03-15T12:05:50.241Z,14304.00
2018-03-15T12:06:50.424Z,10220.00
2018-03-15T12:07:50.634Z,7556.00
2018-03-15T12:08:50.766Z,6984.00
2018-03-15T12:09:50.956Z,6660.00
2018-03-15T12:10:51.111Z,6484.00
2018-03-15T12:11:51.282Z,7076.00
2018-03-15T12:12:51.450Z,8924.00
2018-03-15T12:13:51.627Z,10392.00
2018-03-15T12:14:51.804Z,9140.00
2018-03-15T12:15:51.973Z,7668.00
2018-03-15T12:16:52.202Z,6776.00
2018-03-15T12:17:52.329Z,6728.00
2018-03-15T12:18:52.705Z,6972.00
2018-03-15T12:19:52.644Z,7004.00
2018-03-15T12:20:52.860Z,6008.00
2018-03-15T12:21:53.007Z,6544.00
2018-03-15T12:22:53.177Z,5808.00
2018-03-15T12:23:53.334Z,6164.00
2018-03-15T12:24:53.495Z,6124.00
2018-03-15T12:25:53.672Z,5664.00
2018-03-15T12:26:53.847Z,5244.00
2018-03-15T12:27:54.003Z,5344.00
2018-03-15T12:28:54.170Z,4956.00
2018-03-15T12:29:54.325Z,5324.00
2018-03-15T12:30:54.501Z,5616.00
2018-03-15T12:31:54.676Z,5544.00
2018-03-15T12:32:54.843Z,5752.00
2018-03-15T12:33:55.008Z,5500.00
2018-03-15T12:34:55.187Z,5088.00
2018-03-15T12:35:55.358Z,5124.00
2018-03-15T12:36:55.544Z,5096.00
2018-03-15T12:37:55.687Z,5316.00
2018-03-15T12:38:55.857Z,5444.00